Time;durP1;ratioP1;P1;durP2;ratioP2;P2;SDS_P1;SDS_P2;PMS_P1;PMS_P2;Temp;Humidity;BMP_temperature;BMP_pressure;BME280_temperature;BME280_humidity;BME280_pressure;Samples;Min_cycle;Max_cycle;Signal;HPM_P1;HPM_P2
2022/12/17 13:06:47;;;;;;;66.45;32.63;;;1.10;99.90;;;;;;5017725;28;20132;-85
2022/12/17 13:09:24;;;;;;;70.78;34.80;;;1.10;99.90;;;;;;5001681;28;20029;-84
2022/12/17 13:12:15;;;;;;;70.05;32.97;;;1.10;99.90;;;;;;5020132;28;20030;-84
2022/12/17 13:14:49;;;;;;;89.32;35.97;;;1.10;99.90;;;;;;5006038;28;20044;-84
2022/12/17 13:17:15;;;;;;;71.72;32.40;;;1.10;99.90;;;;;;5002523;28;20033;-85
2022/12/17 13:19:42;;;;;;;68.07;31.08;;;1.10;99.90;;;;;;5022242;28;20022;-85
2022/12/17 13:22:34;;;;;;;75.68;35.00;;;1.10;99.90;;;;;;5004775;28;20022;-84
2022/12/17 13:25:21;;;;;;;69.80;34.20;;;1.10;99.90;;;;;;5008866;28;20058;-84
2022/12/17 13:27:47;;;;;;;80.63;35.05;;;1.10;99.90;;;;;;4999535;28;20029;-83
2022/12/17 13:30:16;;;;;;;71.20;31.40;;;1.10;99.90;;;;;;5016887;28;20025;-83
2022/12/17 13:32:44;;;;;;;71.68;33.13;;;1.10;99.90;;;;;;4999119;28;20414;-84
2022/12/17 13:35:36;;;;;;;70.63;32.00;;;1.20;99.90;;;;;;4998885;28;20111;-83
2022/12/17 13:38:21;;;;;;;73.47;34.50;;;1.20;99.90;;;;;;4998447;28;20029;-83
2022/12/17 13:41:20;;;;;;;67.93;32.03;;;1.00;99.90;;;;;;5000959;28;20026;-84
2022/12/17 13:43:57;;;;;;;76.97;31.95;;;1.00;99.90;;;;;;5008796;28;20105;-84
2022/12/17 13:46:42;;;;;;;67.53;32.65;;;0.90;99.90;;;;;;5015077;28;20022;-84
2022/12/17 13:49:28;;;;;;;69.93;32.00;;;0.80;99.90;;;;;;5015237;28;20049;-85
2022/12/17 13:52:15;;;;;;;68.53;32.83;;;0.80;99.90;;;;;;5007863;28;20018;-84
2022/12/17 13:54:41;;;;;;;70.85;33.00;;;0.90;99.90;;;;;;5010655;28;20129;-84
2022/12/17 13:57:22;;;;;;;72.53;33.15;;;0.80;99.90;;;;;;4991207;28;20022;-88
2022/12/17 14:00:01;;;;;;;66.78;32.60;;;0.90;99.90;;;;;;5017188;28;20076;-87
2022/12/17 14:02:29;;;;;;;69.63;32.85;;;0.90;99.90;;;;;;4997693;28;20152;-87
2022/12/17 14:04:57;;;;;;;67.85;32.72;;;0.80;99.90;;;;;;5016393;28;20018;-88
2022/12/17 14:07:27;;;;;;;69.28;31.70;;;0.80;99.90;;;;;;5016355;28;20076;-88
2022/12/17 14:09:54;;;;;;;70.07;34.05;;;0.80;99.90;;;;;;5000269;28;20030;-87
2022/12/17 14:12:24;;;;;;;69.30;32.10;;;0.90;99.90;;;;;;4980205;28;20037;-87
2022/12/17 14:14:59;;;;;;;66.10;29.67;;;0.90;99.90;;;;;;5000412;28;20115;-87
2022/12/17 14:17:49;;;;;;;63.13;30.45;;;0.90;99.90;;;;;;5019775;28;20245;-87
2022/12/17 14:20:16;;;;;;;69.07;32.27;;;0.90;99.90;;;;;;5012200;28;20040;-87
2022/12/17 14:22:49;;;;;;;67.85;32.05;;;1.00;99.90;;;;;;5008933;28;20785;-87
2022/12/17 14:25:24;;;;;;;68.85;32.17;;;0.90;99.90;;;;;;4984516;28;20047;-87
2022/12/17 14:28:05;;;;;;;68.20;32.63;;;0.90;99.90;;;;;;4975022;28;20026;-87
2022/12/17 14:30:41;;;;;;;77.30;35.65;;;0.90;99.90;;;;;;4974513;28;20431;-84
2022/12/17 14:33:33;;;;;;;77.68;32.33;;;0.80;99.90;;;;;;4943807;29;20043;-84
2022/12/17 14:36:04;;;;;;;71.45;31.75;;;0.80;99.90;;;;;;4955786;28;20043;-84
2022/12/17 14:38:30;;;;;;;70.82;33.20;;;0.80;99.90;;;;;;4955927;29;20444;-84
2022/12/17 14:42:24;;;;;;;68.00;29.83;;;0.80;99.90;;;;;;4939972;29;20039;-84
2022/12/17 14:43:58;;;;;;;72.80;33.45;;;0.70;99.90;;;;;;4957369;29;20110;-84
2022/12/17 14:46:24;;;;;;;67.15;31.75;;;0.80;99.90;;;;;;4961167;28;20129;-83
2022/12/17 14:49:14;;;;;;;69.88;30.95;;;0.80;99.90;;;;;;4962734;28;20105;-82
2022/12/17 14:51:41;;;;;;;67.43;31.85;;;0.80;99.90;;;;;;4993539;28;20113;-82
2022/12/17 14:54:18;;;;;;;71.10;31.30;;;0.80;99.90;;;;;;4977656;28;20046;-83
2022/12/17 14:56:46;;;;;;;77.60;34.03;;;0.80;99.90;;;;;;4977214;28;20490;-83
2022/12/17 14:59:35;;;;;;;62.53;29.08;;;0.70;99.90;;;;;;4976894;28;20023;-84
2022/12/17 15:02:27;;;;;;;67.50;31.45;;;0.70;99.90;;;;;;4975752;28;20027;-84
2022/12/17 15:04:57;;;;;;;61.13;29.02;;;0.60;99.90;;;;;;4968903;28;20045;-89
2022/12/17 15:07:28;;;;;;;60.65;27.85;;;0.60;99.90;;;;;;4978840;28;20030;-88
2022/12/17 15:09:55;;;;;;;60.28;27.80;;;0.60;99.90;;;;;;4975140;28;20376;-88
2022/12/17 15:12:27;;;;;;;62.90;28.35;;;0.50;99.90;;;;;;4959535;28;20035;-87
2022/12/17 15:14:56;;;;;;;56.30;27.58;;;0.50;99.90;;;;;;4977350;28;20070;-89
2022/12/17 15:17:22;;;;;;;58.20;27.63;;;0.50;99.90;;;;;;4976394;28;20062;-88
2022/12/17 15:19:47;;;;;;;61.97;29.27;;;0.50;99.90;;;;;;4975719;28;20030;-85
2022/12/17 15:22:15;;;;;;;58.70;27.70;;;0.50;99.90;;;;;;4960915;28;20035;-86
2022/12/17 15:24:41;;;;;;;63.80;31.33;;;0.50;99.90;;;;;;4975906;28;20051;-86
2022/12/17 15:27:13;;;;;;;58.75;29.00;;;0.50;99.90;;;;;;4976234;28;20035;-86
2022/12/17 15:29:43;;;;;;;65.80;29.77;;;0.50;99.90;;;;;;4975087;28;20475;-86
2022/12/17 15:32:22;;;;;;;68.40;32.08;;;0.50;99.90;;;;;;4973579;28;20032;-85
2022/12/17 15:34:49;;;;;;;69.07;32.42;;;0.50;99.90;;;;;;4956837;28;20027;-87
2022/12/17 15:37:16;;;;;;;72.30;32.85;;;0.50;99.90;;;;;;4974451;28;20038;-86
2022/12/17 15:39:45;;;;;;;74.43;35.97;;;0.50;99.90;;;;;;4968115;28;20711;-86
2022/12/17 15:44:54;;;;;;;66.75;33.13;;;0.50;99.90;;;;;;4975794;28;20436;-85
2022/12/17 15:47:20;;;;;;;71.07;33.03;;;0.50;99.90;;;;;;4951276;28;20038;-86
2022/12/17 15:49:46;;;;;;;65.50;30.95;;;0.50;99.90;;;;;;4948752;29;20035;-84
2022/12/17 15:52:14;;;;;;;64.35;30.73;;;0.40;99.90;;;;;;4960871;28;20401;-86
2022/12/17 15:54:44;;;;;;;68.53;33.92;;;0.40;99.90;;;;;;4957124;29;20089;-86
2022/12/17 15:57:09;;;;;;;64.50;31.38;;;0.40;99.90;;;;;;4940344;29;20140;-85
2022/12/17 15:59:35;;;;;;;64.22;31.05;;;0.40;99.90;;;;;;4939441;29;20043;-85
2022/12/17 16:02:01;;;;;;;69.55;31.67;;;0.40;99.90;;;;;;4955839;28;20055;-85
2022/12/17 16:04:27;;;;;;;61.90;29.85;;;0.40;99.90;;;;;;4955676;28;20075;-85
2022/12/17 16:06:53;;;;;;;63.63;30.90;;;0.40;99.90;;;;;;4940138;28;20365;-86
2022/12/17 16:09:23;;;;;;;65.85;31.17;;;0.40;99.90;;;;;;4941883;29;20476;-86
2022/12/17 16:11:51;;;;;;;70.30;34.33;;;0.40;99.90;;;;;;4957885;28;20042;-83
2022/12/17 16:14:18;;;;;;;74.97;33.60;;;0.40;99.90;;;;;;4973960;28;20492;-83
2022/12/17 16:16:43;;;;;;;66.25;31.30;;;0.40;99.90;;;;;;4974095;28;20077;-83
2022/12/17 16:19:09;;;;;;;80.18;35.88;;;0.40;99.90;;;;;;4974037;28;20454;-83
2022/12/17 16:21:35;;;;;;;63.45;30.30;;;0.40;99.90;;;;;;4975000;28;20085;-83
2022/12/17 16:24:00;;;;;;;74.25;37.72;;;0.40;99.90;;;;;;4974552;28;20476;-83
2022/12/17 16:26:26;;;;;;;70.38;33.30;;;0.40;99.90;;;;;;5011218;28;20458;-82
2022/12/17 16:28:52;;;;;;;67.97;35.75;;;0.40;99.90;;;;;;4974386;28;20029;-83
2022/12/17 16:31:18;;;;;;;73.10;38.95;;;0.40;99.90;;;;;;4992551;28;20042;-83
2022/12/17 16:33:46;;;;;;;71.05;34.53;;;0.40;99.90;;;;;;5005555;28;20031;-83
2022/12/17 16:36:15;;;;;;;67.95;33.92;;;0.40;99.90;;;;;;4996097;28;20022;-83
2022/12/17 16:38:52;;;;;;;71.97;32.95;;;0.40;99.90;;;;;;4995575;28;20022;-83
2022/12/17 16:41:21;;;;;;;62.70;30.30;;;0.40;99.90;;;;;;5008164;28;20031;-83
2022/12/17 16:43:47;;;;;;;67.40;30.02;;;0.40;99.90;;;;;;4987475;28;20025;-83
2022/12/17 16:46:26;;;;;;;70.07;32.90;;;0.40;99.90;;;;;;4994002;28;20033;-83
2022/12/17 16:48:53;;;;;;;70.65;32.25;;;0.40;99.90;;;;;;4993828;28;20065;-83
2022/12/17 16:51:20;;;;;;;64.30;31.45;;;0.40;99.90;;;;;;4994052;28;20053;-83
2022/12/17 16:53:46;;;;;;;76.05;36.10;;;0.30;99.90;;;;;;4991145;28;20057;-82
2022/12/17 16:56:16;;;;;;;68.95;32.33;;;0.30;99.90;;;;;;4990347;28;20073;-83
2022/12/17 16:58:42;;;;;;;65.53;29.02;;;0.30;99.90;;;;;;4989668;28;20026;-83
2022/12/17 17:01:09;;;;;;;72.30;32.35;;;0.30;99.90;;;;;;4980272;28;20063;-83
2022/12/17 17:03:43;;;;;;;73.35;32.78;;;0.30;99.90;;;;;;4976501;28;20041;-83
2022/12/17 17:06:09;;;;;;;69.13;30.73;;;0.30;99.90;;;;;;4992969;28;20034;-83
2022/12/17 17:08:36;;;;;;;64.15;28.08;;;0.30;99.90;;;;;;4979518;28;20030;-83
2022/12/17 17:11:28;;;;;;;64.00;28.88;;;0.30;99.90;;;;;;4995784;28;20540;-83
2022/12/17 17:13:54;;;;;;;65.43;30.55;;;0.20;99.90;;;;;;4990429;28;20049;-84
2022/12/17 17:16:22;;;;;;;70.80;29.92;;;0.20;99.90;;;;;;4981112;28;20034;-84
2022/12/17 17:18:49;;;;;;;69.82;30.08;;;0.30;99.90;;;;;;4980363;28;20426;-84
2022/12/17 17:21:18;;;;;;;68.53;31.70;;;0.20;99.90;;;;;;4980195;28;20518;-84
2022/12/17 17:23:48;;;;;;;69.63;29.60;;;0.10;99.90;;;;;;4980293;28;20035;-83
2022/12/17 17:26:17;;;;;;;61.85;29.73;;;0.10;99.90;;;;;;4997212;28;20117;-84
2022/12/17 17:28:44;;;;;;;67.57;30.50;;;0.10;99.90;;;;;;4997248;28;20027;-84
2022/12/17 17:31:12;;;;;;;66.63;31.02;;;0.20;99.90;;;;;;4979697;28;20030;-84
2022/12/17 17:33:41;;;;;;;62.13;30.50;;;0.10;99.90;;;;;;4982103;28;20041;-86
2022/12/17 17:36:12;;;;;;;60.50;30.33;;;0.20;99.90;;;;;;5010133;28;20422;-87
2022/12/17 17:38:39;;;;;;;67.28;31.88;;;0.10;99.90;;;;;;5017535;28;20085;-87
2022/12/17 17:41:07;;;;;;;63.33;29.48;;;0.00;99.90;;;;;;4999337;28;20475;-87
2022/12/17 17:43:33;;;;;;;63.15;27.20;;;0.00;99.90;;;;;;5016766;28;20045;-87
2022/12/17 17:46:11;;;;;;;57.83;27.48;;;0.00;99.90;;;;;;4983204;28;20460;-87
2022/12/17 17:48:37;;;;;;;60.13;27.95;;;0.10;99.90;;;;;;4999131;28;20111;-87
2022/12/17 17:51:07;;;;;;;61.55;28.38;;;0.10;99.90;;;;;;4999084;28;20053;-83
2022/12/17 17:53:33;;;;;;;65.57;29.38;;;0.10;99.90;;;;;;4998488;28;20033;-83
2022/12/17 17:56:13;;;;;;;64.72;26.42;;;0.10;99.90;;;;;;4980954;28;20026;-83
2022/12/17 17:58:41;;;;;;;55.78;25.33;;;0.10;99.90;;;;;;4987379;28;20025;-83
2022/12/17 18:01:09;;;;;;;67.57;32.50;;;0.00;99.90;;;;;;4984483;28;20052;-83
2022/12/17 18:03:36;;;;;;;64.35;34.20;;;0.00;99.90;;;;;;5016344;28;20025;-83
2022/12/17 18:06:04;;;;;;;58.80;28.27;;;-0.10;99.90;;;;;;5016222;28;20034;-84
2022/12/17 18:08:31;;;;;;;58.35;27.25;;;-0.10;99.90;;;;;;4998562;28;20034;-83
2022/12/17 18:10:58;;;;;;;56.85;28.50;;;-0.20;99.90;;;;;;4998452;28;20545;-83
2022/12/17 18:16:08;;;;;;;57.00;26.42;;;-0.30;99.90;;;;;;5010412;28;20032;-83
2022/12/17 18:18:34;;;;;;;53.70;26.02;;;-0.30;99.90;;;;;;4993922;28;20018;-82
2022/12/17 18:21:12;;;;;;;55.40;26.15;;;-0.30;99.90;;;;;;5003976;28;20025;-83
2022/12/17 18:23:38;;;;;;;58.05;27.85;;;-0.40;99.90;;;;;;5010914;28;20049;-85
2022/12/17 18:26:08;;;;;;;60.05;26.95;;;-0.40;99.90;;;;;;4992187;28;20049;-85
2022/12/17 18:28:35;;;;;;;58.67;26.38;;;-0.40;99.90;;;;;;5022528;28;20056;-86
2022/12/17 18:31:07;;;;;;;60.53;27.52;;;-0.50;99.90;;;;;;4998031;28;20025;-85
2022/12/17 18:33:35;;;;;;;63.80;27.88;;;-0.50;99.90;;;;;;5008667;28;20334;-85
2022/12/17 18:36:00;;;;;;;55.85;25.85;;;-0.50;99.90;;;;;;5011634;28;20022;-85
2022/12/17 18:38:26;;;;;;;55.33;25.58;;;-0.40;99.90;;;;;;5000448;28;20037;-85
2022/12/17 18:40:52;;;;;;;59.28;27.60;;;-0.40;99.90;;;;;;4999331;28;20022;-85
2022/12/17 18:43:23;;;;;;;59.95;26.90;;;-0.40;99.90;;;;;;5000958;28;20429;-85
2022/12/17 18:45:52;;;;;;;52.90;24.98;;;-0.40;99.90;;;;;;5017105;28;20029;-85
2022/12/17 18:48:19;;;;;;;59.83;25.17;;;-0.40;99.90;;;;;;4983998;28;20049;-85
2022/12/17 18:50:45;;;;;;;55.67;26.02;;;-0.30;99.90;;;;;;5012158;28;20085;-85
2022/12/17 18:53:11;;;;;;;54.10;25.38;;;-0.30;99.90;;;;;;5010658;28;20033;-85
2022/12/17 18:55:40;;;;;;;57.78;25.98;;;-0.30;99.90;;;;;;4994883;28;20388;-85
2022/12/17 18:58:07;;;;;;;64.70;27.08;;;-0.40;99.90;;;;;;5026559;28;20056;-85
2022/12/17 19:00:33;;;;;;;58.90;27.90;;;-0.40;99.90;;;;;;5002711;28;20037;-85
2022/12/17 19:02:59;;;;;;;57.90;24.77;;;-0.40;99.90;;;;;;5006332;28;20034;-85
2022/12/17 19:05:25;;;;;;;60.10;27.55;;;-0.40;99.90;;;;;;4996731;28;20033;-85
2022/12/17 19:07:50;;;;;;;62.28;27.65;;;-0.40;99.90;;;;;;5007845;28;20056;-85
2022/12/17 19:10:16;;;;;;;59.00;25.27;;;-0.40;99.90;;;;;;5022680;28;20067;-84
2022/12/17 19:12:42;;;;;;;54.08;26.50;;;-0.40;99.90;;;;;;5024304;28;20541;-85
2022/12/17 19:15:08;;;;;;;57.50;26.73;;;-0.40;99.90;;;;;;4991245;28;20030;-83
2022/12/17 19:17:33;;;;;;;58.95;25.92;;;-0.40;99.90;;;;;;5003842;28;20026;-83
2022/12/17 19:19:59;;;;;;;63.65;30.58;;;-0.40;99.90;;;;;;5030872;28;20112;-84
2022/12/17 19:22:25;;;;;;;57.75;26.00;;;-0.40;99.90;;;;;;5010115;28;20073;-83
2022/12/17 19:24:50;;;;;;;58.83;26.02;;;-0.50;99.90;;;;;;4994768;28;20053;-83
2022/12/17 19:27:16;;;;;;;63.75;26.83;;;-0.40;99.90;;;;;;5005952;28;20149;-83
2022/12/17 19:29:42;;;;;;;59.47;26.15;;;-0.50;99.90;;;;;;4973747;28;20033;-83
2022/12/17 19:32:08;;;;;;;58.42;25.27;;;-0.50;99.90;;;;;;5005693;28;20037;-85
2022/12/17 19:34:34;;;;;;;57.47;26.13;;;-0.60;99.90;;;;;;5009441;28;20032;-85
2022/12/17 19:36:59;;;;;;;63.13;26.38;;;-0.60;99.90;;;;;;4989406;28;20030;-85
2022/12/17 19:39:25;;;;;;;60.10;25.75;;;-0.60;99.90;;;;;;4978958;28;20052;-86
2022/12/17 19:41:51;;;;;;;56.85;24.30;;;-0.60;99.90;;;;;;5009131;28;20351;-85
2022/12/17 19:44:19;;;;;;;57.00;25.30;;;-0.60;99.90;;;;;;4978803;28;20120;-83
2022/12/17 19:46:45;;;;;;;63.10;26.83;;;-0.60;99.90;;;;;;5021570;28;20057;-82
2022/12/17 19:49:12;;;;;;;57.85;23.35;;;-0.60;99.90;;;;;;5008808;28;20052;-83
2022/12/17 19:51:39;;;;;;;55.83;24.95;;;-0.70;99.90;;;;;;4987938;28;20041;-82
2022/12/17 19:54:05;;;;;;;57.55;23.98;;;-0.70;99.90;;;;;;4993509;28;20483;-82
2022/12/17 19:56:31;;;;;;;59.90;25.40;;;-0.70;99.90;;;;;;4988246;28;20033;-82
2022/12/17 19:59:00;;;;;;;63.83;27.27;;;-0.70;99.90;;;;;;4989992;28;20022;-83
2022/12/17 20:01:39;;;;;;;56.55;25.30;;;-0.70;99.90;;;;;;5025592;28;20018;-83
2022/12/17 20:04:05;;;;;;;58.40;25.58;;;-0.80;99.90;;;;;;5009211;28;20033;-83
2022/12/17 20:06:33;;;;;;;61.10;26.45;;;-0.70;99.90;;;;;;5025615;28;20489;-83
2022/12/17 20:09:01;;;;;;;71.40;26.30;;;-0.80;99.90;;;;;;5027389;28;20030;-84
2022/12/17 20:11:33;;;;;;;63.75;27.67;;;-0.80;99.90;;;;;;5006190;28;20040;-83
2022/12/17 20:14:16;;;;;;;60.83;25.85;;;-0.70;99.90;;;;;;5012791;28;20450;-83
2022/12/17 20:16:44;;;;;;;58.05;23.40;;;-0.80;99.90;;;;;;5025757;28;20026;-83
2022/12/17 20:19:13;;;;;;;57.05;22.88;;;-0.80;99.90;;;;;;5007927;28;20060;-83
2022/12/17 20:21:40;;;;;;;62.28;26.00;;;-0.80;99.90;;;;;;5022657;28;20030;-83
2022/12/17 20:24:06;;;;;;;65.20;26.50;;;-0.80;99.90;;;;;;4986816;28;20081;-85
2022/12/17 20:26:32;;;;;;;62.28;24.63;;;-0.80;99.90;;;;;;4975081;28;20041;-84
2022/12/17 20:28:58;;;;;;;72.85;27.05;;;-0.80;99.90;;;;;;5022748;28;20473;-83
2022/12/17 20:31:25;;;;;;;66.47;28.55;;;-0.80;99.90;;;;;;4980380;28;20116;-84
2022/12/17 20:33:50;;;;;;;68.15;28.05;;;-0.80;99.90;;;;;;5024061;28;20022;-84
2022/12/17 20:36:18;;;;;;;63.92;26.85;;;-0.80;99.90;;;;;;5010756;28;20128;-83
2022/12/17 20:38:44;;;;;;;59.00;27.00;;;-0.80;99.90;;;;;;5024767;28;20064;-85
2022/12/17 20:41:12;;;;;;;61.28;25.65;;;-0.80;99.90;;;;;;5026790;28;20077;-84
2022/12/17 20:43:39;;;;;;;72.18;30.88;;;-0.90;99.90;;;;;;4995751;28;20407;-84
2022/12/17 20:46:08;;;;;;;64.97;26.50;;;-0.90;99.90;;;;;;5005406;28;20390;-84
2022/12/17 20:48:34;;;;;;;62.40;26.20;;;-1.00;99.90;;;;;;4991174;28;20399;-84
2022/12/17 20:51:07;;;;;;;62.47;26.65;;;-1.00;99.90;;;;;;5002649;28;20037;-84
2022/12/17 20:53:34;;;;;;;59.83;26.92;;;-1.00;99.90;;;;;;5024563;28;20037;-83
2022/12/17 20:56:09;;;;;;;76.35;33.78;;;-1.10;99.90;;;;;;5029031;28;20017;-84
2022/12/17 20:58:37;;;;;;;68.32;26.67;;;-1.10;99.90;;;;;;5007272;28;20025;-83
2022/12/17 21:01:11;;;;;;;70.80;26.92;;;-1.30;99.90;;;;;;5030095;28;20021;-83
2022/12/17 21:03:38;;;;;;;75.70;27.02;;;-1.30;99.90;;;;;;5008608;28;20036;-83
2022/12/17 21:06:21;;;;;;;73.40;27.10;;;-1.40;99.90;;;;;;5014378;28;20462;-83
2022/12/17 21:08:49;;;;;;;73.57;27.73;;;-1.40;99.90;;;;;;5004188;28;20037;-83
2022/12/17 21:11:23;;;;;;;71.50;28.50;;;-1.30;99.90;;;;;;5012384;28;20030;-83
2022/12/17 21:13:49;;;;;;;72.20;27.52;;;-1.30;99.90;;;;;;5027043;28;20030;-83
2022/12/17 21:16:24;;;;;;;70.70;27.45;;;-1.30;99.90;;;;;;5006021;28;20117;-83
2022/12/17 21:18:52;;;;;;;68.65;26.13;;;-1.20;99.90;;;;;;5001804;28;20095;-83
2022/12/17 21:21:21;;;;;;;70.30;28.38;;;-1.20;99.90;;;;;;5010592;28;20419;-81
2022/12/17 21:23:55;;;;;;;73.93;28.63;;;-1.20;99.90;;;;;;5010662;28;20030;-82
2022/12/17 21:26:24;;;;;;;76.55;30.58;;;-1.20;99.90;;;;;;5029638;28;20075;-83
2022/12/17 21:28:51;;;;;;;72.57;28.38;;;-1.20;99.90;;;;;;5023185;28;20025;-83
2022/12/17 21:31:24;;;;;;;70.05;29.67;;;-1.10;99.90;;;;;;5011177;28;20029;-84
2022/12/17 21:33:52;;;;;;;68.03;27.35;;;-1.00;99.90;;;;;;5030450;28;20042;-83
2022/12/17 21:36:19;;;;;;;68.65;27.35;;;-1.00;99.90;;;;;;5032446;28;20034;-83
2022/12/17 21:38:46;;;;;;;67.47;30.95;;;-1.00;99.90;;;;;;5007470;28;20079;-84
2022/12/17 21:41:15;;;;;;;68.85;29.48;;;-0.90;99.90;;;;;;4996644;28;20029;-83
2022/12/17 21:43:41;;;;;;;75.82;30.58;;;-0.90;99.90;;;;;;5030767;28;20061;-85
2022/12/17 21:46:09;;;;;;;117.70;48.67;;;-0.80;99.90;;;;;;5012609;28;20076;-85
2022/12/17 21:48:41;;;;;;;82.13;34.00;;;-0.90;99.90;;;;;;5011790;28;20486;-85
2022/12/17 21:51:10;;;;;;;97.55;39.78;;;-0.90;99.90;;;;;;5009513;28;20042;-84
2022/12/17 21:53:40;;;;;;;120.03;54.70;;;-0.80;99.90;;;;;;5001978;28;20026;-85
2022/12/17 21:56:09;;;;;;;75.78;31.88;;;-0.80;99.90;;;;;;4989226;28;20064;-84
2022/12/17 21:58:35;;;;;;;85.20;36.38;;;-0.90;99.90;;;;;;5011824;28;20095;-84
2022/12/17 22:01:20;;;;;;;90.95;38.05;;;-0.80;99.90;;;;;;5013200;28;20029;-84
2022/12/17 22:03:48;;;;;;;81.15;34.15;;;-0.90;99.90;;;;;;5023324;28;20025;-84
2022/12/17 22:06:16;;;;;;;75.30;31.58;;;-0.90;99.90;;;;;;5011595;28;20121;-84
2022/12/17 22:08:43;;;;;;;73.00;30.15;;;-1.00;99.90;;;;;;5015160;28;20045;-83
2022/12/17 22:11:16;;;;;;;69.20;28.73;;;-1.00;99.90;;;;;;5012316;28;20068;-83
2022/12/17 22:14:01;;;;;;;70.43;29.05;;;-1.00;99.90;;;;;;5017689;28;20030;-85
2022/12/17 22:16:34;;;;;;;72.68;31.38;;;-1.00;99.90;;;;;;5015861;28;20029;-82
2022/12/17 22:19:07;;;;;;;69.97;29.15;;;-1.10;99.90;;;;;;5022009;28;20075;-82
2022/12/17 22:21:38;;;;;;;72.18;28.08;;;-1.10;99.90;;;;;;4989358;28;20430;-82
2022/12/17 22:24:04;;;;;;;63.63;27.60;;;-1.00;99.90;;;;;;4987247;28;20030;-82
2022/12/17 22:26:30;;;;;;;75.75;30.05;;;-1.00;99.90;;;;;;5029612;28;20049;-82
2022/12/17 22:28:56;;;;;;;65.13;26.52;;;-1.00;99.90;;;;;;4990606;28;20041;-81
2022/12/17 22:34:10;;;;;;;73.85;30.45;;;-1.00;99.90;;;;;;5024230;28;20119;-81
2022/12/17 22:36:36;;;;;;;71.03;28.92;;;-0.90;99.90;;;;;;5007274;28;20022;-81
2022/12/17 22:39:06;;;;;;;73.63;32.53;;;-1.00;99.90;;;;;;5001783;28;20026;-82
2022/12/17 22:44:16;;;;;;;78.75;32.45;;;-1.00;99.90;;;;;;5014194;28;20103;-83
2022/12/17 22:46:42;;;;;;;85.13;36.50;;;-1.00;99.90;;;;;;5027339;28;20038;-82
2022/12/17 22:49:08;;;;;;;78.18;29.90;;;-1.00;99.90;;;;;;4994105;28;20033;-82
2022/12/17 22:51:34;;;;;;;72.43;28.98;;;-1.10;99.90;;;;;;5025220;28;20034;-82
2022/12/17 22:54:02;;;;;;;66.45;30.25;;;-1.00;99.90;;;;;;4989036;28;20066;-82
2022/12/17 22:56:30;;;;;;;74.10;28.85;;;-1.00;99.90;;;;;;5024792;28;20033;-82
2022/12/17 22:58:56;;;;;;;74.18;30.10;;;-1.00;99.90;;;;;;5022798;28;20025;-82
2022/12/17 23:01:22;;;;;;;69.43;29.10;;;-1.00;99.90;;;;;;5027036;28;20029;-82
2022/12/17 23:03:48;;;;;;;66.85;26.73;;;-1.00;99.90;;;;;;5010532;28;20083;-82
2022/12/17 23:06:17;;;;;;;68.60;28.48;;;-1.00;99.90;;;;;;4995572;28;20025;-82
2022/12/17 23:08:43;;;;;;;70.68;30.50;;;-1.00;99.90;;;;;;5006725;28;20045;-82
2022/12/17 23:11:11;;;;;;;68.10;29.67;;;-1.10;99.90;;;;;;5011732;28;20108;-82
2022/12/17 23:13:37;;;;;;;69.80;30.77;;;-1.10;99.90;;;;;;5004297;28;20034;-81
2022/12/17 23:16:04;;;;;;;68.38;29.60;;;-1.10;99.90;;;;;;5029850;28;20084;-82
2022/12/17 23:18:31;;;;;;;60.97;29.05;;;-1.10;99.90;;;;;;5007412;28;20053;-82
2022/12/17 23:21:14;;;;;;;65.88;27.85;;;-1.10;99.90;;;;;;4994142;28;20056;-82
2022/12/17 23:23:41;;;;;;;78.65;32.85;;;-1.00;99.90;;;;;;5015184;28;20075;-82
2022/12/17 23:26:07;;;;;;;66.40;28.05;;;-1.10;99.90;;;;;;5033874;28;20057;-82
2022/12/17 23:28:33;;;;;;;69.65;28.67;;;-1.10;99.90;;;;;;5016502;28;20030;-82
2022/12/17 23:31:08;;;;;;;67.38;30.00;;;-1.10;99.90;;;;;;5016267;28;20029;-82
2022/12/17 23:33:34;;;;;;;69.40;28.88;;;-1.10;99.90;;;;;;5032934;28;20025;-82
2022/12/17 23:36:05;;;;;;;66.38;28.15;;;-1.10;99.90;;;;;;5016324;28;20493;-82
2022/12/17 23:38:37;;;;;;;70.28;30.13;;;-1.10;99.90;;;;;;5016920;28;20428;-82
2022/12/17 23:41:22;;;;;;;70.07;30.35;;;-1.10;99.90;;;;;;5028249;23;20058;-81
2022/12/17 23:43:48;;;;;;;71.57;30.20;;;-1.10;99.90;;;;;;5014292;28;20060;-82
2022/12/17 23:46:15;;;;;;;66.07;31.00;;;-1.20;99.90;;;;;;5013045;28;20478;-82
2022/12/17 23:48:42;;;;;;;67.93;30.45;;;-1.10;99.90;;;;;;5013028;28;20025;-82
2022/12/17 23:51:09;;;;;;;64.55;28.30;;;-1.10;99.90;;;;;;5013129;28;20030;-82
2022/12/17 23:53:41;;;;;;;75.72;30.90;;;-1.20;99.90;;;;;;5012904;28;20037;-82
2022/12/17 23:56:11;;;;;;;62.15;27.38;;;-1.20;99.90;;;;;;5012926;28;20046;-82
2022/12/17 23:58:38;;;;;;;60.63;28.45;;;-1.10;99.90;;;;;;5012833;28;20029;-82
